TimeCDT,TemperatureF,Dew PointF,Humidity,Sea Level PressureIn,VisibilityMPH,Wind Direction,Wind SpeedMPH,Gust SpeedMPH,PrecipitationIn,Events,Conditions,WindDirDegrees,DateUTC
12:55 AM,57.0,54.9,92,29.97,10.0,Calm,Calm,-,N/A,,Scattered Clouds,0,2012-10-03 05:55:00
1:55 AM,55.4,54.1,96,29.98,10.0,Calm,Calm,-,N/A,,Clear,0,2012-10-03 06:55:00
2:55 AM,55.9,55.6,99,29.98,10.0,Calm,Calm,-,N/A,,Clear,0,2012-10-03 07:55:00
3:55 AM,56.1,55.8,99,29.97,10.0,Calm,Calm,-,N/A,,Clear,0,2012-10-03 08:55:00
4:55 AM,56.5,56.1,99,29.98,9.0,Calm,Calm,-,N/A,,Clear,0,2012-10-03 09:55:00
5:55 AM,57.2,56.5,97,30.00,10.0,Calm,Calm,-,N/A,,Clear,0,2012-10-03 10:55:00
6:55 AM,55.9,55.8,99,30.01,10.0,Calm,Calm,-,N/A,,Partly Cloudy,0,2012-10-03 11:55:00
7:55 AM,55.4,55.2,99,30.02,8.0,Calm,Calm,-,N/A,,Clear,0,2012-10-03 12:55:00
8:55 AM,61.9,57.2,85,30.04,10.0,Calm,Calm,-,N/A,,Clear,0,2012-10-03 13:55:00
9:55 AM,67.3,59.0,75,30.06,10.0,SE,3.5,-,N/A,,Clear,130,2012-10-03 14:55:00
10:55 AM,71.2,58.5,64,30.06,10.0,Calm,Calm,-,N/A,,Clear,0,2012-10-03 15:55:00
11:55 AM,75.6,58.5,55,30.06,10.0,South,5.8,-,N/A,,Clear,180,2012-10-03 16:55:00
12:55 PM,77.4,55.4,47,30.05,10.0,Variable,3.5,-,N/A,,Clear,0,2012-10-03 17:55:00
1:55 PM,78.3,53.6,42,30.03,10.0,ESE,5.8,-,N/A,,Clear,110,2012-10-03 18:55:00
2:55 PM,79.5,56.3,45,30.01,10.0,South,3.5,-,N/A,,Clear,190,2012-10-03 19:55:00
3:55 PM,79.9,55.8,43,30.01,10.0,Variable,3.5,-,N/A,,Clear,0,2012-10-03 20:55:00
4:55 PM,79.5,55.6,44,30.01,10.0,ESE,6.9,-,N/A,,Clear,110,2012-10-03 21:55:00
5:55 PM,77.5,57.4,50,30.01,10.0,SE,4.6,-,N/A,,Clear,130,2012-10-03 22:55:00
6:55 PM,71.8,58.3,62,30.02,10.0,ESE,3.5,-,N/A,,Clear,120,2012-10-03 23:55:00
7:55 PM,67.3,59.4,76,30.04,10.0,ESE,3.5,-,N/A,,Clear,120,2012-10-04 00:55:00
8:55 PM,66.2,57.9,75,30.05,10.0,SE,3.5,-,N/A,,Clear,130,2012-10-04 01:55:00
9:55 PM,64.2,57.4,78,30.07,10.0,SE,3.5,-,N/A,,Clear,140,2012-10-04 02:55:00
10:55 PM,62.8,57.9,84,30.08,10.0,Calm,Calm,-,N/A,,Clear,0,2012-10-04 03:55:00
11:55 PM,61.3,57.6,87,30.09,10.0,Calm,Calm,-,N/A,,Clear,0,2012-10-04 04:55:00